Friendsville, MD (21531)

10:37 PM EDT on July 30, 2016 (GMT -0400)
Blooming Rose | | Change Station

Elev 2044 ft 39.65 °N, 79.43 °W | Updated 13 minutes ago

Scattered Clouds
Scattered Clouds
67.5 °F
Feels Like 67.5 °F
N
0.0
Wind Variable Wind from NE

Today
High -- | Low -- °F
--% Chance of Precip.
Yesterday
High -- | Low -- °F
Precip. -- in
Pressure 30.09 in
Visibility 7.0 miles
Clouds Scattered Clouds 2000 ft
Scattered Clouds 2900 ft
Dew Point 65 °F
Humidity 92%
Rainfall 0.36 in
Snow Depth Not available.
6:15 AM 8:32 PM
Waning Crescent, 9% visible
METAR K2G4 310230Z AUTO 15005KT 7SM SCT020 SCT029 18/18 A3009 RMK AO1
Pressure 30.09 in
Visibility 7.0 miles
Clouds Scattered Clouds 2000 ft
Scattered Clouds 2900 ft
Dew Point 65 °F
Humidity 92%
Rainfall 0.36 in
Snow Depth Not available.
6:15 AM 8:32 PM
Waning Crescent, 9% visible
METAR K2G4 310230Z AUTO 15005KT 7SM SCT020 SCT029 18/18 A3009 RMK AO1

10-Day Weather Forecast

Almanac

Astronomy

Jul. 30, 2016 Rise Set
Actual Time
Civil Twilight
Nautical Twilight
Astronomical Twilight
Moon
Length of Visible Light
Length of Day
Tomorrow will be .
, % of the Moon is Illuminated

Today's Extremes

State Highs State Lows

Community

WunderPhotos

Upload Photos

1,928,714 photos uploaded!

WunderBlog® & News

Nearby

Air Quality

  Air Quality AQ Index Pollutant
Not available.

Snow Depth

Station Depth Elevation

Earthquake Activity

City Distance Mag. Time & Date
Minimum magnitude displayed is 2.5.

Coastal Water Temperatures

Place Temperature

Stations

Nearby Weather Stations

Station Location Temp. Windchill Dew Point Humidity Wind Precip. Elev Updated Type
                   

Watches & Warnings

There are currently no watches in effect.